createdAt,value
2017-08-20T00:00:29.326Z,75.23
2017-08-20T00:01:27.325Z,75.28
2017-08-20T00:02:24.613Z,75.28
2017-08-20T00:03:21.882Z,75.26
2017-08-20T00:04:21.211Z,75.23
2017-08-20T00:05:18.489Z,75.23
2017-08-20T00:06:15.753Z,75.20
2017-08-20T00:07:13.066Z,75.19
2017-08-20T00:08:10.359Z,75.17
2017-08-20T00:09:07.630Z,75.18
2017-08-20T00:10:05.449Z,75.19
2017-08-20T00:11:03.685Z,75.19
2017-08-20T00:12:00.966Z,75.23
2017-08-20T00:12:58.261Z,75.25
2017-08-20T00:13:55.550Z,75.24
2017-08-20T00:14:52.830Z,75.24
2017-08-20T00:15:50.117Z,75.23
2017-08-20T00:16:47.461Z,75.22
2017-08-20T00:17:44.753Z,75.20
2017-08-20T00:18:42.026Z,75.21
2017-08-20T00:19:39.290Z,75.21
2017-08-20T00:20:36.688Z,75.20
2017-08-20T00:21:34.029Z,75.20
2017-08-20T00:22:31.318Z,75.21
2017-08-20T00:23:28.592Z,75.23
2017-08-20T00:24:25.885Z,75.23
2017-08-20T00:25:23.145Z,75.23
2017-08-20T00:26:20.421Z,75.24
2017-08-20T00:27:17.730Z,75.23
2017-08-20T00:28:15.080Z,75.22
2017-08-20T00:29:12.350Z,75.21
2017-08-20T00:30:09.638Z,75.21
2017-08-20T00:31:06.897Z,75.21
2017-08-20T00:32:04.382Z,75.22
2017-08-20T00:33:01.844Z,75.21
2017-08-20T00:33:59.170Z,75.19
2017-08-20T00:34:56.501Z,75.20
2017-08-20T00:35:54.143Z,75.20
2017-08-20T00:36:51.547Z,75.23
2017-08-20T00:37:48.841Z,75.26
2017-08-20T00:38:46.246Z,75.26
2017-08-20T00:39:43.699Z,75.30
2017-08-20T00:40:41.090Z,75.33
2017-08-20T00:41:38.568Z,75.32
2017-08-20T00:42:36.047Z,75.34
2017-08-20T00:43:33.529Z,75.33
2017-08-20T00:44:30.996Z,75.35
2017-08-20T00:45:28.262Z,75.33
2017-08-20T00:46:25.526Z,75.35
2017-08-20T00:47:23.013Z,75.36
2017-08-20T00:48:20.441Z,75.35
2017-08-20T00:49:17.864Z,75.34
2017-08-20T00:50:15.321Z,75.35
2017-08-20T00:51:12.593Z,75.34
2017-08-20T00:52:09.891Z,75.35
2017-08-20T00:53:07.395Z,75.34
2017-08-20T00:54:04.796Z,75.33
2017-08-20T00:55:02.267Z,75.35
2017-08-20T00:55:59.622Z,75.33
2017-08-20T00:56:57.099Z,75.37
2017-08-20T00:57:54.361Z,75.36
2017-08-20T00:58:51.654Z,75.38
2017-08-20T00:59:48.990Z,75.36
2017-08-20T01:00:46.494Z,75.38
2017-08-20T01:01:43.894Z,75.40
2017-08-20T01:02:41.549Z,75.38
2017-08-20T01:03:38.941Z,75.39
2017-08-20T01:04:36.557Z,75.39
2017-08-20T01:05:33.845Z,75.40
2017-08-20T01:06:31.117Z,75.40
2017-08-20T01:07:28.368Z,75.37
2017-08-20T01:08:25.646Z,75.36
2017-08-20T01:09:22.917Z,75.33
2017-08-20T01:10:20.204Z,75.34
2017-08-20T01:11:17.462Z,75.35
2017-08-20T01:12:14.742Z,75.35
2017-08-20T01:13:12.012Z,75.33
2017-08-20T01:14:09.340Z,75.31
2017-08-20T01:15:06.625Z,75.33
2017-08-20T01:16:03.921Z,75.31
2017-08-20T01:17:01.212Z,75.31
2017-08-20T01:17:58.489Z,75.32
2017-08-20T01:18:55.799Z,75.30
2017-08-20T01:19:53.070Z,75.30
2017-08-20T01:20:50.342Z,75.30
2017-08-20T01:21:47.633Z,75.29
2017-08-20T01:22:44.922Z,75.30
2017-08-20T01:23:42.210Z,75.32
2017-08-20T01:24:39.483Z,75.32
2017-08-20T01:25:36.776Z,75.30
2017-08-20T01:26:34.033Z,75.31
2017-08-20T01:27:31.328Z,75.30
2017-08-20T01:28:28.601Z,75.32
2017-08-20T01:29:25.896Z,75.31
2017-08-20T01:30:23.145Z,75.32
2017-08-20T01:31:20.442Z,75.33
2017-08-20T01:32:17.720Z,75.36
2017-08-20T01:33:15.018Z,75.35
2017-08-20T01:34:12.288Z,75.37
2017-08-20T01:35:09.558Z,75.38
2017-08-20T01:36:07.511Z,75.39
2017-08-20T01:37:04.788Z,75.41
2017-08-20T01:38:02.052Z,75.41
2017-08-20T01:38:59.337Z,75.41
2017-08-20T01:39:56.655Z,75.43
2017-08-20T01:40:53.933Z,75.44
2017-08-20T01:41:51.198Z,75.43
2017-08-20T01:42:48.508Z,75.44
2017-08-20T01:43:45.762Z,75.46
2017-08-20T01:44:43.050Z,75.46
2017-08-20T01:45:40.305Z,75.47
2017-08-20T01:46:37.580Z,75.47
2017-08-20T01:47:34.834Z,75.49
2017-08-20T01:48:32.098Z,75.51
2017-08-20T01:49:29.350Z,75.50
2017-08-20T01:50:26.641Z,75.52
2017-08-20T01:51:23.890Z,75.53
2017-08-20T01:52:21.159Z,75.51
2017-08-20T01:53:18.448Z,75.51
2017-08-20T01:54:15.706Z,75.52
2017-08-20T01:55:13.010Z,75.49
2017-08-20T01:56:10.300Z,75.52
2017-08-20T01:57:07.557Z,75.51
2017-08-20T01:58:04.830Z,75.51
2017-08-20T01:59:02.098Z,75.52
2017-08-20T01:59:59.406Z,75.52
2017-08-20T02:00:56.671Z,75.52
2017-08-20T02:01:53.940Z,75.53
2017-08-20T02:02:51.209Z,75.55
2017-08-20T02:03:48.482Z,75.54
2017-08-20T02:04:45.752Z,75.54
2017-08-20T02:05:43.068Z,75.54
2017-08-20T02:06:40.323Z,75.56
2017-08-20T02:07:37.613Z,75.57
2017-08-20T02:08:34.873Z,75.57
2017-08-20T02:09:32.147Z,75.57
2017-08-20T02:10:29.442Z,75.57
2017-08-20T02:11:26.722Z,75.58
2017-08-20T02:12:23.973Z,75.58
2017-08-20T02:13:21.256Z,75.59
2017-08-20T02:14:18.521Z,75.59
2017-08-20T02:15:15.826Z,75.65
2017-08-20T02:16:13.109Z,75.62
2017-08-20T02:17:10.389Z,75.65
2017-08-20T02:18:07.655Z,75.63
2017-08-20T02:19:04.937Z,75.63
2017-08-20T02:20:02.204Z,75.62
2017-08-20T02:20:59.501Z,75.64
2017-08-20T02:21:56.779Z,75.66
2017-08-20T02:22:54.070Z,75.66
2017-08-20T02:23:51.330Z,75.69
2017-08-20T02:24:48.598Z,75.68
2017-08-20T02:25:46.281Z,75.68
2017-08-20T02:26:43.600Z,75.72
2017-08-20T02:27:40.889Z,75.72
2017-08-20T02:28:38.161Z,75.74
2017-08-20T02:29:35.405Z,75.73
2017-08-20T02:30:32.673Z,75.73
2017-08-20T02:31:29.989Z,75.73
2017-08-20T02:32:27.282Z,75.73
2017-08-20T02:33:24.547Z,75.74
2017-08-20T02:34:21.828Z,75.75
2017-08-20T02:35:19.102Z,75.74
2017-08-20T02:36:16.406Z,75.76
2017-08-20T02:37:13.692Z,75.79
2017-08-20T02:38:10.990Z,75.79
2017-08-20T02:39:08.249Z,75.79
2017-08-20T02:40:05.530Z,75.81
2017-08-20T02:41:02.860Z,75.82
2017-08-20T02:42:00.165Z,75.83
2017-08-20T02:42:57.429Z,75.85
2017-08-20T02:43:54.715Z,75.83
2017-08-20T02:44:52.074Z,75.83
2017-08-20T02:45:49.367Z,75.86
2017-08-20T02:46:46.677Z,75.88
2017-08-20T02:47:43.978Z,75.86
2017-08-20T02:48:41.266Z,75.89
2017-08-20T02:49:38.590Z,75.89
2017-08-20T02:50:35.874Z,75.91
2017-08-20T02:51:33.193Z,75.93
2017-08-20T02:52:30.487Z,75.94
2017-08-20T02:53:27.779Z,75.96
2017-08-20T02:54:25.038Z,75.96
2017-08-20T02:55:22.325Z,75.97
2017-08-20T02:56:19.610Z,75.98
2017-08-20T02:57:16.909Z,75.98
2017-08-20T02:58:14.193Z,75.99
2017-08-20T02:59:11.477Z,75.98
2017-08-20T03:00:08.738Z,75.98
2017-08-20T03:01:06.010Z,76.00
2017-08-20T03:02:03.311Z,76.01
2017-08-20T03:03:00.613Z,76.03
2017-08-20T03:03:57.931Z,76.05
2017-08-20T03:04:55.225Z,76.04
2017-08-20T03:05:52.490Z,76.07
2017-08-20T03:06:49.790Z,76.07
2017-08-20T03:07:47.071Z,76.07
2017-08-20T03:08:44.354Z,76.08
2017-08-20T03:09:41.607Z,76.10
2017-08-20T03:10:39.092Z,76.08
2017-08-20T03:11:36.345Z,76.07
2017-08-20T03:12:33.638Z,76.06
2017-08-20T03:13:30.905Z,76.07
2017-08-20T03:14:28.169Z,76.09
2017-08-20T03:15:25.433Z,76.10
2017-08-20T03:16:22.698Z,76.10
2017-08-20T03:17:19.982Z,76.09
2017-08-20T03:18:17.271Z,76.11
2017-08-20T03:19:14.533Z,76.09
2017-08-20T03:20:11.809Z,76.10
2017-08-20T03:21:09.118Z,76.09
2017-08-20T03:22:06.428Z,76.08
2017-08-20T03:23:03.707Z,76.09
2017-08-20T03:24:00.989Z,76.11
2017-08-20T03:24:58.248Z,76.19
2017-08-20T03:25:55.515Z,76.21
2017-08-20T03:26:52.777Z,76.24
2017-08-20T03:27:50.126Z,76.25
2017-08-20T03:28:47.411Z,76.23
2017-08-20T03:29:44.730Z,76.24
2017-08-20T03:30:42.070Z,76.26
2017-08-20T03:31:39.394Z,76.30
2017-08-20T03:32:36.693Z,76.30
2017-08-20T03:33:33.997Z,76.32
2017-08-20T03:34:31.295Z,76.36
2017-08-20T03:35:28.651Z,76.37
2017-08-20T03:36:25.967Z,76.42
2017-08-20T03:37:23.409Z,76.43
2017-08-20T03:38:20.881Z,76.48
2017-08-20T03:39:18.220Z,76.50
2017-08-20T03:40:15.631Z,76.55
2017-08-20T03:41:12.955Z,76.59
2017-08-20T03:42:10.251Z,76.61
2017-08-20T03:43:07.550Z,76.62
2017-08-20T03:44:04.855Z,76.65
2017-08-20T03:45:02.183Z,76.63
2017-08-20T03:45:59.468Z,76.64
2017-08-20T03:46:56.785Z,76.67
2017-08-20T03:47:54.237Z,76.67
2017-08-20T03:48:51.605Z,76.68
2017-08-20T03:49:48.925Z,76.70
2017-08-20T03:50:46.237Z,76.70
2017-08-20T03:51:43.539Z,76.73
2017-08-20T03:52:40.840Z,76.76
2017-08-20T03:53:38.121Z,76.79
2017-08-20T03:54:35.465Z,76.78
2017-08-20T03:55:32.769Z,76.80
2017-08-20T03:56:30.056Z,76.80
2017-08-20T03:57:27.345Z,76.82
2017-08-20T03:58:24.653Z,76.83
2017-08-20T03:59:21.953Z,76.84
2017-08-20T04:00:19.291Z,76.82
2017-08-20T04:01:16.589Z,76.82
2017-08-20T04:02:13.896Z,76.85
2017-08-20T04:03:11.194Z,76.86
2017-08-20T04:04:08.524Z,76.90
2017-08-20T04:05:05.873Z,76.90
2017-08-20T04:06:03.161Z,76.94
2017-08-20T04:07:00.468Z,76.94
2017-08-20T04:07:57.757Z,76.95
2017-08-20T04:08:55.050Z,76.96
2017-08-20T04:09:52.352Z,76.99
2017-08-20T04:10:49.709Z,77.02
2017-08-20T04:11:47.096Z,77.04
2017-08-20T04:12:44.412Z,77.05
2017-08-20T04:13:41.727Z,77.04
2017-08-20T04:14:39.021Z,77.04
2017-08-20T04:15:36.336Z,77.07
2017-08-20T04:16:33.613Z,77.03
2017-08-20T04:17:30.884Z,77.03
2017-08-20T04:18:28.231Z,77.02
2017-08-20T04:19:25.497Z,77.01
2017-08-20T04:20:22.761Z,76.99
2017-08-20T04:21:20.050Z,76.97
2017-08-20T04:22:17.334Z,76.95
2017-08-20T04:23:14.615Z,76.94
2017-08-20T04:24:11.966Z,76.94
2017-08-20T04:25:09.253Z,76.94
2017-08-20T04:26:06.576Z,76.96
2017-08-20T04:27:03.897Z,76.95
2017-08-20T04:28:01.199Z,76.96
2017-08-20T04:28:58.509Z,77.00
2017-08-20T04:29:55.785Z,77.04
2017-08-20T04:30:53.065Z,77.09
2017-08-20T04:31:50.337Z,77.12
2017-08-20T04:32:47.617Z,77.14
2017-08-20T04:33:44.897Z,77.16
2017-08-20T04:34:42.195Z,77.17
2017-08-20T04:35:39.465Z,77.21
2017-08-20T04:36:36.747Z,77.22
2017-08-20T04:37:34.031Z,77.25
2017-08-20T04:38:31.306Z,77.25
2017-08-20T04:39:28.576Z,77.28
2017-08-20T04:40:25.897Z,77.32
2017-08-20T04:41:23.169Z,77.31
2017-08-20T04:42:20.458Z,77.31
2017-08-20T04:43:17.706Z,77.32
2017-08-20T04:44:15.014Z,77.35
2017-08-20T04:45:12.335Z,77.36
2017-08-20T04:46:09.624Z,77.38
2017-08-20T04:47:07.084Z,77.40
2017-08-20T04:48:04.421Z,77.39
2017-08-20T04:49:01.761Z,77.39
2017-08-20T04:49:59.048Z,77.42
2017-08-20T04:50:56.507Z,77.44
2017-08-20T04:51:53.798Z,77.44
2017-08-20T04:52:51.084Z,77.43
2017-08-20T04:53:48.374Z,77.43
2017-08-20T04:54:45.666Z,77.42
2017-08-20T04:55:42.945Z,77.38
2017-08-20T04:56:40.209Z,77.37
2017-08-20T04:57:37.559Z,77.35
2017-08-20T04:58:34.826Z,77.36
2017-08-20T04:59:32.161Z,77.37
2017-08-20T05:00:29.466Z,77.40
2017-08-20T05:01:26.770Z,77.40
2017-08-20T05:02:24.149Z,77.41
2017-08-20T05:03:21.459Z,77.42
2017-08-20T05:04:18.762Z,77.43
2017-08-20T05:05:16.141Z,77.43
2017-08-20T05:06:13.417Z,77.44
2017-08-20T05:07:10.706Z,77.43
2017-08-20T05:08:08.206Z,77.42
2017-08-20T05:09:05.787Z,77.43
2017-08-20T05:10:03.374Z,77.44
2017-08-20T05:11:00.697Z,77.44
2017-08-20T05:11:57.955Z,77.45
2017-08-20T05:12:55.238Z,77.43
2017-08-20T05:13:52.569Z,77.42
2017-08-20T05:14:49.923Z,77.42
2017-08-20T05:15:47.226Z,77.44
2017-08-20T05:16:44.543Z,77.48
2017-08-20T05:17:41.815Z,77.47
2017-08-20T05:18:39.110Z,77.50
2017-08-20T05:19:36.384Z,77.48
2017-08-20T05:20:33.694Z,77.52
2017-08-20T05:21:31.036Z,77.54
2017-08-20T05:22:28.350Z,77.56
2017-08-20T05:23:25.617Z,77.57
2017-08-20T05:24:22.924Z,77.59
2017-08-20T05:25:20.248Z,77.59
2017-08-20T05:26:17.543Z,77.60
2017-08-20T05:27:14.853Z,77.60
2017-08-20T05:28:12.159Z,77.61
2017-08-20T05:29:09.416Z,77.64
2017-08-20T05:30:06.745Z,77.63
2017-08-20T05:31:04.026Z,77.63
2017-08-20T05:32:01.334Z,77.67
2017-08-20T05:32:58.777Z,77.70
2017-08-20T05:33:56.149Z,77.71
2017-08-20T05:34:53.444Z,77.73
2017-08-20T05:35:50.754Z,77.75
2017-08-20T05:36:48.099Z,77.76
2017-08-20T05:37:45.412Z,77.78
2017-08-20T05:38:42.697Z,77.83
2017-08-20T05:39:40.038Z,77.85
2017-08-20T05:40:37.362Z,77.88
2017-08-20T05:41:34.683Z,77.91
2017-08-20T05:42:31.990Z,77.94
2017-08-20T05:43:29.330Z,77.94
2017-08-20T05:44:26.606Z,77.93
2017-08-20T05:45:23.905Z,77.94
2017-08-20T05:46:21.221Z,77.99
2017-08-20T05:47:18.542Z,77.99
2017-08-20T05:48:15.893Z,77.99
2017-08-20T05:49:13.225Z,78.02
2017-08-20T05:50:10.534Z,78.07
2017-08-20T05:51:07.840Z,78.08
2017-08-20T05:52:05.122Z,78.10
2017-08-20T05:53:02.472Z,78.11
2017-08-20T05:53:59.773Z,78.14
2017-08-20T05:54:57.074Z,78.14
2017-08-20T05:55:54.389Z,78.18
2017-08-20T05:56:51.679Z,78.21
2017-08-20T05:57:48.982Z,78.23
2017-08-20T05:58:46.363Z,78.24
2017-08-20T05:59:43.629Z,78.27
2017-08-20T06:00:40.934Z,78.28
2017-08-20T06:01:38.216Z,78.30
2017-08-20T06:02:35.489Z,78.31
2017-08-20T06:03:32.774Z,78.30
2017-08-20T06:04:30.082Z,78.32
2017-08-20T06:05:27.369Z,78.35
2017-08-20T06:06:24.685Z,78.39
2017-08-20T06:07:21.988Z,78.42
2017-08-20T06:08:19.318Z,78.43
2017-08-20T06:09:16.599Z,78.45
2017-08-20T06:10:13.889Z,78.49
2017-08-20T06:11:11.207Z,78.53
2017-08-20T06:12:08.552Z,78.53
2017-08-20T06:13:05.861Z,78.57
2017-08-20T06:14:03.149Z,78.56
2017-08-20T06:15:00.431Z,78.60
2017-08-20T06:15:57.735Z,78.61
2017-08-20T06:16:55.022Z,78.62
2017-08-20T06:17:52.297Z,78.61
2017-08-20T06:18:49.576Z,78.64
2017-08-20T06:19:46.905Z,78.63
2017-08-20T06:20:44.161Z,78.66
2017-08-20T06:21:41.481Z,78.69
2017-08-20T06:22:38.756Z,78.69
2017-08-20T06:23:36.054Z,78.74
2017-08-20T06:24:33.330Z,78.74
2017-08-20T06:25:30.626Z,78.77
2017-08-20T06:26:27.909Z,78.78
2017-08-20T06:27:25.213Z,78.81
2017-08-20T06:28:22.481Z,78.83
2017-08-20T06:29:19.774Z,78.89
2017-08-20T06:30:17.064Z,78.91
2017-08-20T06:31:14.361Z,78.96
2017-08-20T06:32:11.656Z,79.00
2017-08-20T06:33:08.933Z,79.01
2017-08-20T06:34:06.200Z,79.04
2017-08-20T06:35:03.497Z,79.10
2017-08-20T06:36:00.778Z,79.14
2017-08-20T06:36:58.095Z,79.18
2017-08-20T06:37:55.354Z,79.19
2017-08-20T06:38:52.666Z,79.23
2017-08-20T06:39:49.962Z,79.26
2017-08-20T06:40:47.245Z,79.31
2017-08-20T06:41:44.539Z,79.33
2017-08-20T06:42:41.844Z,79.34
2017-08-20T06:43:39.229Z,79.37
2017-08-20T06:44:36.498Z,79.39
2017-08-20T06:45:33.758Z,79.42
2017-08-20T06:46:31.022Z,79.42
2017-08-20T06:47:28.314Z,79.44
2017-08-20T06:48:25.601Z,79.45
2017-08-20T06:49:22.886Z,79.46
2017-08-20T06:50:20.181Z,79.52
2017-08-20T06:51:17.438Z,79.55
2017-08-20T06:52:14.802Z,79.59
2017-08-20T06:53:12.062Z,79.58
2017-08-20T06:54:09.515Z,79.61
2017-08-20T06:55:06.920Z,79.63
2017-08-20T06:56:04.227Z,79.70
2017-08-20T06:57:01.602Z,79.73
2017-08-20T06:57:58.914Z,79.74
2017-08-20T06:58:56.205Z,79.77
2017-08-20T06:59:53.698Z,79.79
2017-08-20T07:00:50.989Z,79.82
2017-08-20T07:01:48.332Z,79.82
2017-08-20T07:02:45.861Z,79.82
2017-08-20T07:03:43.210Z,79.81
2017-08-20T07:04:40.498Z,79.83
2017-08-20T07:05:37.797Z,79.82
2017-08-20T07:06:35.146Z,79.83
2017-08-20T07:07:32.538Z,79.85
2017-08-20T07:08:29.912Z,79.87
2017-08-20T07:09:27.226Z,79.83
2017-08-20T07:10:24.476Z,79.80
2017-08-20T07:11:21.895Z,79.81
2017-08-20T07:12:19.182Z,79.81
2017-08-20T07:13:16.723Z,79.84
2017-08-20T07:14:14.062Z,79.86
2017-08-20T07:15:11.338Z,79.87
2017-08-20T07:16:08.740Z,79.92
2017-08-20T07:17:06.034Z,79.94
2017-08-20T07:18:03.353Z,79.96
2017-08-20T07:19:00.694Z,80.01
2017-08-20T07:19:57.987Z,80.08
2017-08-20T07:20:55.309Z,80.09
2017-08-20T07:21:52.577Z,80.12
2017-08-20T07:22:49.871Z,80.13
2017-08-20T07:23:47.181Z,80.13
2017-08-20T07:24:44.620Z,80.17
2017-08-20T07:25:41.890Z,80.18
2017-08-20T07:26:39.226Z,80.17
2017-08-20T07:27:36.499Z,80.18
2017-08-20T07:28:33.878Z,80.20
2017-08-20T07:29:31.297Z,80.23
2017-08-20T07:30:28.678Z,80.27
2017-08-20T07:31:26.014Z,80.33
2017-08-20T07:32:23.328Z,80.35
2017-08-20T07:33:20.601Z,80.37
2017-08-20T07:34:17.889Z,80.42
2017-08-20T07:35:15.161Z,80.45
2017-08-20T07:36:12.445Z,80.49
2017-08-20T07:37:09.734Z,80.50
2017-08-20T07:38:07.314Z,80.52
2017-08-20T07:39:04.706Z,80.53
2017-08-20T07:40:02.046Z,80.53
2017-08-20T07:40:59.417Z,80.56
2017-08-20T07:41:56.695Z,80.57
2017-08-20T07:42:54.026Z,80.62
2017-08-20T07:43:51.686Z,80.67
2017-08-20T07:44:48.958Z,80.70
2017-08-20T07:45:46.229Z,80.75
2017-08-20T07:46:43.552Z,80.78
2017-08-20T07:47:40.867Z,80.83
2017-08-20T07:48:38.215Z,80.86
2017-08-20T07:49:35.550Z,80.87
2017-08-20T07:50:32.821Z,80.93
2017-08-20T07:51:30.153Z,80.98
2017-08-20T07:52:27.433Z,81.01
2017-08-20T07:53:24.715Z,81.04
2017-08-20T07:54:22.033Z,81.08
2017-08-20T07:55:19.330Z,81.10
2017-08-20T07:56:16.597Z,81.16
2017-08-20T07:57:13.919Z,81.16
2017-08-20T07:58:11.204Z,81.21
2017-08-20T07:59:08.510Z,81.22
2017-08-20T08:00:05.778Z,81.28
2017-08-20T08:01:03.072Z,81.29
2017-08-20T08:02:00.325Z,81.33
2017-08-20T08:02:57.609Z,81.36
2017-08-20T08:03:54.930Z,81.37
2017-08-20T08:04:52.207Z,81.41
2017-08-20T08:05:49.461Z,81.42
2017-08-20T08:06:46.740Z,81.47
2017-08-20T08:07:44.009Z,81.48
2017-08-20T08:08:41.310Z,81.51
2017-08-20T08:09:38.616Z,81.52
2017-08-20T08:10:35.928Z,81.53
2017-08-20T08:11:33.210Z,81.58
2017-08-20T08:12:30.520Z,81.58
2017-08-20T08:13:27.792Z,81.62
2017-08-20T08:14:25.105Z,81.63
2017-08-20T08:15:22.388Z,81.62
2017-08-20T08:16:19.685Z,81.63
2017-08-20T08:17:16.956Z,81.66
2017-08-20T08:18:14.475Z,81.69
2017-08-20T08:19:11.763Z,81.73
2017-08-20T08:20:09.051Z,81.75
2017-08-20T08:21:06.325Z,81.77
2017-08-20T08:22:03.614Z,81.79
2017-08-20T08:23:00.997Z,81.82
2017-08-20T08:23:59.554Z,81.85
2017-08-20T08:24:56.832Z,81.85
2017-08-20T08:25:54.162Z,81.87
2017-08-20T08:26:51.461Z,81.92
2017-08-20T08:27:48.737Z,81.93
2017-08-20T08:28:45.999Z,81.97
2017-08-20T08:29:43.314Z,81.97
2017-08-20T08:30:40.617Z,82.00
2017-08-20T08:31:37.942Z,81.98
2017-08-20T08:32:35.213Z,81.99
2017-08-20T08:33:32.563Z,81.97
2017-08-20T08:34:29.877Z,81.98
2017-08-20T08:35:27.227Z,81.96
2017-08-20T08:36:24.574Z,82.00
2017-08-20T08:37:22.025Z,82.06
2017-08-20T08:38:19.384Z,82.04
2017-08-20T08:39:16.987Z,82.09
2017-08-20T08:40:14.666Z,82.10
2017-08-20T08:41:14.163Z,82.10
2017-08-20T08:42:11.558Z,82.13
2017-08-20T08:43:08.878Z,82.18
2017-08-20T08:44:06.159Z,82.23
2017-08-20T08:45:03.477Z,82.24
2017-08-20T08:46:00.925Z,82.24
2017-08-20T08:46:58.702Z,82.24
2017-08-20T08:47:56.066Z,82.23
2017-08-20T08:48:53.601Z,82.21
2017-08-20T08:49:50.953Z,82.23
2017-08-20T08:50:48.531Z,82.25
2017-08-20T08:51:46.302Z,82.25
2017-08-20T08:52:43.685Z,82.25
2017-08-20T08:53:40.968Z,82.21
2017-08-20T08:54:38.231Z,82.20
2017-08-20T08:55:35.609Z,82.15
2017-08-20T08:56:33.002Z,82.15
2017-08-20T08:57:30.467Z,82.12
2017-08-20T08:58:27.798Z,82.12
2017-08-20T08:59:25.085Z,82.17
2017-08-20T09:00:22.386Z,82.21
2017-08-20T09:01:19.676Z,82.23
2017-08-20T09:02:16.970Z,82.24
2017-08-20T09:03:14.234Z,82.25
2017-08-20T09:04:11.533Z,82.25
2017-08-20T09:05:08.830Z,82.28
2017-08-20T09:06:06.133Z,82.30
2017-08-20T09:07:03.409Z,82.33
2017-08-20T09:08:00.720Z,82.31
2017-08-20T09:08:58.010Z,82.35
2017-08-20T09:09:55.310Z,82.36
2017-08-20T09:10:52.616Z,82.39
2017-08-20T09:11:49.910Z,82.40
2017-08-20T09:12:48.199Z,82.34
2017-08-20T09:13:46.214Z,82.29
2017-08-20T09:14:43.812Z,82.28
2017-08-20T09:15:41.276Z,82.33
2017-08-20T09:16:38.756Z,82.34
2017-08-20T09:17:36.136Z,82.36
2017-08-20T09:18:33.522Z,82.36
2017-08-20T09:19:30.936Z,82.33
2017-08-20T09:20:28.225Z,82.29
2017-08-20T09:21:25.664Z,82.27
2017-08-20T09:22:23.268Z,82.29
2017-08-20T09:23:20.627Z,82.33
2017-08-20T09:24:17.916Z,82.35
2017-08-20T09:25:15.222Z,82.35
2017-08-20T09:26:12.582Z,82.36
2017-08-20T09:27:09.967Z,82.35
2017-08-20T09:28:07.337Z,82.35
2017-08-20T09:29:04.741Z,82.36
2017-08-20T09:30:02.081Z,82.32
2017-08-20T09:30:59.412Z,82.27
2017-08-20T09:31:56.731Z,82.25
2017-08-20T09:32:54.081Z,82.26
2017-08-20T09:33:51.813Z,82.23
2017-08-20T09:34:49.120Z,82.20
2017-08-20T09:35:46.381Z,82.17
2017-08-20T09:36:44.150Z,82.16
2017-08-20T09:37:41.444Z,82.13
2017-08-20T09:38:38.777Z,82.09
2017-08-20T09:39:36.050Z,82.11
2017-08-20T09:40:33.614Z,82.08
2017-08-20T09:41:30.926Z,82.03
2017-08-20T09:42:28.225Z,82.01
2017-08-20T09:43:25.513Z,81.96
2017-08-20T09:44:23.257Z,81.93
2017-08-20T09:45:20.530Z,81.93
2017-08-20T09:46:17.837Z,81.86
2017-08-20T09:47:15.138Z,81.82
2017-08-20T09:48:12.438Z,81.82
2017-08-20T09:49:09.726Z,81.78
2017-08-20T09:50:07.033Z,81.73
2017-08-20T09:51:04.322Z,81.73
2017-08-20T09:52:01.633Z,81.71
2017-08-20T09:52:58.922Z,81.74
2017-08-20T09:53:56.236Z,81.73
2017-08-20T09:54:53.506Z,81.72
2017-08-20T09:55:50.789Z,81.70
2017-08-20T09:56:48.137Z,81.71
2017-08-20T09:57:45.450Z,81.72
2017-08-20T09:58:42.760Z,81.71
2017-08-20T09:59:40.053Z,81.70
2017-08-20T10:00:37.339Z,81.72
2017-08-20T10:01:34.637Z,81.73
2017-08-20T10:02:32.054Z,81.69
2017-08-20T10:03:29.349Z,81.65
2017-08-20T10:04:26.659Z,81.63
2017-08-20T10:05:24.017Z,81.64
2017-08-20T10:06:21.280Z,81.68
2017-08-20T10:07:18.583Z,81.69
2017-08-20T10:08:15.868Z,81.75
2017-08-20T10:09:13.174Z,81.75
2017-08-20T10:10:10.473Z,81.72
2017-08-20T10:11:07.781Z,81.68
2017-08-20T10:12:05.087Z,81.63
2017-08-20T10:13:02.370Z,81.59
2017-08-20T10:13:59.659Z,81.61
2017-08-20T10:14:56.972Z,81.61
2017-08-20T10:15:54.250Z,81.61
2017-08-20T10:16:51.549Z,81.61
2017-08-20T10:17:48.864Z,81.62
2017-08-20T10:18:46.151Z,81.65
2017-08-20T10:19:43.425Z,81.67
2017-08-20T10:20:40.726Z,81.71
2017-08-20T10:21:37.993Z,81.70
2017-08-20T10:22:35.322Z,81.71
2017-08-20T10:23:32.606Z,81.69
2017-08-20T10:24:29.909Z,81.59
2017-08-20T10:25:27.186Z,81.57
2017-08-20T10:26:24.469Z,81.60
2017-08-20T10:27:21.738Z,81.65
2017-08-20T10:28:19.053Z,81.70
2017-08-20T10:29:16.327Z,81.67
2017-08-20T10:30:13.629Z,81.65
2017-08-20T10:31:11.386Z,81.57
2017-08-20T10:32:08.690Z,81.54
2017-08-20T10:33:05.994Z,81.48
2017-08-20T10:34:03.287Z,81.46
2017-08-20T10:35:00.581Z,81.43
2017-08-20T10:35:57.874Z,81.40
2017-08-20T10:36:55.161Z,81.40
2017-08-20T10:37:52.893Z,81.35
2017-08-20T10:38:50.216Z,81.29
2017-08-20T10:39:47.979Z,81.28
2017-08-20T10:40:45.437Z,81.29
2017-08-20T10:41:42.851Z,81.28
2017-08-20T10:42:40.189Z,81.17
2017-08-20T10:43:37.630Z,81.12
2017-08-20T10:44:34.906Z,81.11
2017-08-20T10:45:32.213Z,81.07
2017-08-20T10:46:29.522Z,81.04
2017-08-20T10:47:26.846Z,80.98
2017-08-20T10:48:24.165Z,80.91
2017-08-20T10:49:21.452Z,80.89
2017-08-20T10:50:18.745Z,80.86
2017-08-20T10:51:16.133Z,80.82
2017-08-20T10:52:13.454Z,80.79
2017-08-20T10:53:10.825Z,80.77
2017-08-20T10:54:08.126Z,80.70
2017-08-20T10:55:05.410Z,80.68
2017-08-20T10:56:02.779Z,80.67
2017-08-20T10:57:00.102Z,80.58
2017-08-20T10:57:58.161Z,80.56
2017-08-20T10:58:57.071Z,80.47
2017-08-20T10:59:55.093Z,80.41
2017-08-20T11:00:53.031Z,80.41
2017-08-20T11:01:50.322Z,80.42
2017-08-20T11:02:47.634Z,80.41
2017-08-20T11:03:44.977Z,80.36
2017-08-20T11:04:42.686Z,80.33
2017-08-20T11:05:39.989Z,80.26
2017-08-20T11:06:37.296Z,80.15
2017-08-20T11:07:34.601Z,80.06
2017-08-20T11:08:31.893Z,80.00
2017-08-20T11:09:29.191Z,79.98
2017-08-20T11:10:26.510Z,79.94
2017-08-20T11:11:23.797Z,79.88
2017-08-20T11:12:21.095Z,79.84
2017-08-20T11:13:18.389Z,79.76
2017-08-20T11:14:15.709Z,79.66
2017-08-20T11:15:12.986Z,79.61
2017-08-20T11:16:10.281Z,79.55
2017-08-20T11:17:07.578Z,79.50
2017-08-20T11:18:04.882Z,79.47
2017-08-20T11:19:02.185Z,79.42
2017-08-20T11:19:59.492Z,79.42
2017-08-20T11:20:56.797Z,79.30
2017-08-20T11:21:54.091Z,79.25
2017-08-20T11:22:51.369Z,79.23
2017-08-20T11:23:48.686Z,79.23
2017-08-20T11:24:45.985Z,79.16
2017-08-20T11:25:43.322Z,79.05
2017-08-20T11:26:40.605Z,78.94
2017-08-20T11:27:37.962Z,78.81
2017-08-20T11:28:35.246Z,78.77
2017-08-20T11:29:32.554Z,78.67
2017-08-20T11:30:29.842Z,78.66
2017-08-20T11:31:27.133Z,78.62
2017-08-20T11:32:24.422Z,78.55
2017-08-20T11:33:21.721Z,78.53
2017-08-20T11:34:19.047Z,78.49
2017-08-20T11:35:16.344Z,78.46
2017-08-20T11:36:13.698Z,78.37
2017-08-20T11:37:10.985Z,78.34
2017-08-20T11:38:08.350Z,78.27
2017-08-20T11:39:05.650Z,78.22
2017-08-20T11:40:02.966Z,78.15
2017-08-20T11:41:00.282Z,78.04
2017-08-20T11:41:57.635Z,77.97
2017-08-20T11:42:55.003Z,77.97
2017-08-20T11:43:52.265Z,77.93
2017-08-20T11:44:49.576Z,77.91
2017-08-20T11:45:46.846Z,77.90
2017-08-20T11:46:44.153Z,77.86
2017-08-20T11:47:41.433Z,77.86
2017-08-20T11:48:38.877Z,77.82
2017-08-20T11:49:36.437Z,77.78
2017-08-20T11:50:33.730Z,77.74
2017-08-20T11:51:31.102Z,77.66
2017-08-20T11:52:28.405Z,77.57
2017-08-20T11:53:25.805Z,77.50
2017-08-20T11:54:23.106Z,77.40
2017-08-20T11:55:20.490Z,77.31
2017-08-20T11:56:17.802Z,77.29
2017-08-20T11:57:15.077Z,77.22
2017-08-20T11:58:12.376Z,77.21
2017-08-20T11:59:09.651Z,77.19
2017-08-20T12:00:06.962Z,77.13
2017-08-20T12:01:04.241Z,77.08
2017-08-20T12:02:01.530Z,77.01
2017-08-20T12:02:58.844Z,76.94
2017-08-20T12:03:56.197Z,76.87
2017-08-20T12:04:53.513Z,76.80
2017-08-20T12:05:50.849Z,76.77
2017-08-20T12:06:48.159Z,76.67
2017-08-20T12:07:45.445Z,76.64
2017-08-20T12:08:42.946Z,76.62
2017-08-20T12:09:40.272Z,76.56
2017-08-20T12:10:37.622Z,76.57
2017-08-20T12:11:35.043Z,76.48
2017-08-20T12:12:32.454Z,76.50
2017-08-20T12:13:29.768Z,76.42
2017-08-20T12:14:27.102Z,76.35
2017-08-20T12:15:24.453Z,76.26
2017-08-20T12:16:21.742Z,76.19
2017-08-20T12:17:19.049Z,76.15
2017-08-20T12:18:16.357Z,76.12